Time,TemperatureF,DewpointF,PressureIn,WindDirection,WindDirectionDegrees,WindSpeedMPH,WindSpeedGustMPH,Humidity,HourlyPrecipIn,Conditions,Clouds,dailyrainin,SolarRadiationWatts/m^2,SoftwareType,DateUTC
2013-03-07 00:09:00,49.1,27.0,29.79,SE,124,0.0,1.0,42,0.00,,,0.00,0,weatherlink.com 1.10,2013-03-07 07:09:00,
2013-03-07 00:24:00,49.2,27.0,29.78,SE,124,0.0,1.0,43,0.00,,,0.00,0,weatherlink.com 1.10,2013-03-07 07:24:00,
2013-03-07 00:39:00,49.9,27.0,29.78,SE,124,0.0,1.0,41,0.00,,,0.00,0,weatherlink.com 1.10,2013-03-07 07:39:00,
2013-03-07 00:54:00,49.9,27.0,29.78,SE,124,0.0,1.0,41,0.00,,,0.00,0,weatherlink.com 1.10,2013-03-07 07:54:00,
2013-03-07 01:09:00,48.7,26.0,29.78,SE,124,1.0,2.0,42,0.00,,,0.00,0,weatherlink.com 1.10,2013-03-07 08:09:00,
2013-03-07 01:25:00,47.6,27.0,29.78,East,89,2.0,4.0,45,0.00,,,0.00,0,weatherlink.com 1.10,2013-03-07 08:25:00,
2013-03-07 01:39:00,49.1,27.0,29.78,East,95,2.0,3.0,43,0.00,,,0.00,0,weatherlink.com 1.10,2013-03-07 08:39:00,
2013-03-07 01:54:00,49.6,27.0,29.78,ENE,77,0.0,4.0,41,0.00,,,0.00,0,weatherlink.com 1.10,2013-03-07 08:54:00,
2013-03-07 02:09:00,49.9,26.0,29.78,ENE,77,0.0,1.0,39,0.00,,,0.00,0,weatherlink.com 1.10,2013-03-07 09:09:00,
2013-03-07 02:24:00,49.7,25.0,29.77,ENE,77,0.0,0.0,38,0.00,,,0.00,0,weatherlink.com 1.10,2013-03-07 09:24:00,
2013-03-07 02:39:00,47.4,25.0,29.77,East,81,3.0,4.0,41,0.00,,,0.00,0,weatherlink.com 1.10,2013-03-07 09:39:00,
2013-03-07 02:55:00,48.2,25.0,29.77,East,97,0.0,4.0,40,0.00,,,0.00,0,weatherlink.com 1.10,2013-03-07 09:55:00,
2013-03-07 03:10:00,46.9,25.0,29.76,East,97,2.0,2.0,42,0.00,,,0.00,0,weatherlink.com 1.10,2013-03-07 10:10:00,
2013-03-07 03:25:00,45.0,25.0,29.76,East,96,1.0,3.0,45,0.00,,,0.00,0,weatherlink.com 1.10,2013-03-07 10:25:00,
2013-03-07 03:54:00,42.7,25.0,29.76,East,91,3.0,4.0,49,0.00,,,0.00,0,weatherlink.com 1.10,2013-03-07 10:54:00,
2013-03-07 04:10:00,43.3,25.0,29.76,East,92,2.0,5.0,49,0.00,,,0.00,0,weatherlink.com 1.10,2013-03-07 11:10:00,
2013-03-07 04:25:00,44.3,25.0,29.76,East,100,4.0,5.0,47,0.00,,,0.00,0,weatherlink.com 1.10,2013-03-07 11:25:00,
2013-03-07 04:40:00,44.0,25.0,29.77,East,91,3.0,4.0,48,0.00,,,0.00,0,weatherlink.com 1.10,2013-03-07 11:40:00,
2013-03-07 04:55:00,44.1,26.0,29.76,East,91,1.0,5.0,49,0.00,,,0.00,0,weatherlink.com 1.10,2013-03-07 11:55:00,
2013-03-07 05:10:00,44.7,26.0,29.77,East,83,1.0,3.0,48,0.00,,,0.00,0,weatherlink.com 1.10,2013-03-07 12:10:00,
2013-03-07 05:25:00,45.2,26.0,29.77,East,83,1.0,2.0,47,0.00,,,0.00,0,weatherlink.com 1.10,2013-03-07 12:25:00,
2013-03-07 05:40:00,45.0,26.0,29.78,East,83,1.0,2.0,47,0.00,,,0.00,0,weatherlink.com 1.10,2013-03-07 12:40:00,
2013-03-07 05:56:00,43.5,25.0,29.78,East,84,1.0,3.0,49,0.00,,,0.00,0,weatherlink.com 1.10,2013-03-07 12:56:00,
2013-03-07 06:26:00,43.0,26.0,29.79,East,84,1.0,3.0,52,0.00,,,0.00,0,weatherlink.com 1.10,2013-03-07 13:26:00,
2013-03-07 06:40:00,43.4,26.0,29.80,East,84,1.0,3.0,51,0.00,,,0.00,5,weatherlink.com 1.10,2013-03-07 13:40:00,
2013-03-07 06:55:00,44.2,26.0,29.80,East,84,0.0,2.0,50,0.00,,,0.00,14,weatherlink.com 1.10,2013-03-07 13:55:00,
2013-03-07 07:10:00,45.4,27.0,29.81,East,84,0.0,2.0,48,0.00,,,0.00,44,weatherlink.com 1.10,2013-03-07 14:10:00,
2013-03-07 07:25:00,48.4,27.0,29.82,East,84,0.0,2.0,44,0.00,,,0.00,95,weatherlink.com 1.10,2013-03-07 14:25:00,
2013-03-07 07:40:00,51.9,28.0,29.83,East,96,2.0,3.0,40,0.00,,,0.00,160,weatherlink.com 1.10,2013-03-07 14:40:00,
2013-03-07 07:55:00,54.7,26.0,29.83,SE,146,0.0,6.0,33,0.00,,,0.00,232,weatherlink.com 1.10,2013-03-07 14:55:00,
2013-03-07 08:10:00,56.9,26.0,29.83,South,184,2.0,6.0,31,0.00,,,0.00,292,weatherlink.com 1.10,2013-03-07 15:10:00,
2013-03-07 08:25:00,58.5,26.0,29.82,SE,133,4.0,6.0,29,0.00,,,0.00,348,weatherlink.com 1.10,2013-03-07 15:25:00,
2013-03-07 08:41:00,59.8,27.0,29.83,SSE,148,3.0,7.0,29,0.00,,,0.00,410,weatherlink.com 1.10,2013-03-07 15:41:00,
2013-03-07 08:55:00,60.9,27.0,29.83,SSW,195,0.0,7.0,27,0.00,,,0.00,459,weatherlink.com 1.10,2013-03-07 15:55:00,
2013-03-07 09:12:00,62.0,27.0,29.83,SE,132,0.0,8.0,27,0.00,,,0.00,517,weatherlink.com 1.10,2013-03-07 16:12:00,
2013-03-07 09:25:00,62.9,27.0,29.83,SSE,147,1.0,8.0,26,0.00,,,0.00,563,weatherlink.com 1.10,2013-03-07 16:25:00,
2013-03-07 09:42:00,62.9,27.0,29.83,SSW,211,4.0,12.0,26,0.00,,,0.00,610,weatherlink.com 1.10,2013-03-07 16:42:00,
2013-03-07 09:57:00,62.7,27.0,29.82,SSW,193,3.0,11.0,26,0.00,,,0.00,654,weatherlink.com 1.10,2013-03-07 16:57:00,
2013-03-07 10:11:00,63.5,27.0,29.82,WSW,242,7.0,11.0,25,0.00,,,0.00,691,weatherlink.com 1.10,2013-03-07 17:11:00,
2013-03-07 10:26:00,63.6,28.0,29.83,SSW,209,5.0,14.0,26,0.00,,,0.00,729,weatherlink.com 1.10,2013-03-07 17:26:00,
2013-03-07 10:41:00,64.0,28.0,29.82,SW,222,2.0,14.0,26,0.00,,,0.00,761,weatherlink.com 1.10,2013-03-07 17:41:00,
2013-03-07 10:56:00,65.2,27.0,29.82,SW,228,3.0,13.0,24,0.00,,,0.00,793,weatherlink.com 1.10,2013-03-07 17:56:00,
2013-03-07 11:11:00,65.8,26.0,29.82,SSW,212,3.0,9.0,22,0.00,,,0.00,816,weatherlink.com 1.10,2013-03-07 18:11:00,
2013-03-07 11:27:00,66.6,26.0,29.82,ESE,119,7.0,10.0,22,0.00,,,0.00,842,weatherlink.com 1.10,2013-03-07 18:27:00,
2013-03-07 11:41:00,65.9,26.0,29.81,SSE,150,2.0,14.0,22,0.00,,,0.00,853,weatherlink.com 1.10,2013-03-07 18:41:00,
2013-03-07 11:56:00,66.5,26.0,29.81,ESE,107,4.0,17.0,22,0.00,,,0.00,872,weatherlink.com 1.10,2013-03-07 18:56:00,
2013-03-07 12:11:00,67.5,27.0,29.81,SSW,200,1.0,16.0,22,0.00,,,0.00,874,weatherlink.com 1.10,2013-03-07 19:11:00,
2013-03-07 12:41:00,68.5,25.0,29.79,WSW,250,4.0,13.0,19,0.00,,,0.00,882,weatherlink.com 1.10,2013-03-07 19:41:00,
2013-03-07 12:56:00,68.5,20.0,29.79,West,268,3.0,15.0,16,0.00,,,0.00,881,weatherlink.com 1.10,2013-03-07 19:56:00,
2013-03-07 13:12:00,69.4,23.0,29.78,SSW,207,8.0,19.0,17,0.00,,,0.00,865,weatherlink.com 1.10,2013-03-07 20:12:00,
2013-03-07 13:26:00,68.3,20.0,29.78,West,268,7.0,14.0,16,0.00,,,0.00,872,weatherlink.com 1.10,2013-03-07 20:26:00,
2013-03-07 13:41:00,68.4,23.0,29.76,South,189,4.0,20.0,18,0.00,,,0.00,786,weatherlink.com 1.10,2013-03-07 20:41:00,
2013-03-07 13:56:00,68.6,23.0,29.76,SW,236,9.0,19.0,18,0.00,,,0.00,831,weatherlink.com 1.10,2013-03-07 20:56:00,
2013-03-07 14:11:00,69.6,24.0,29.75,SSW,207,9.0,13.0,18,0.00,,,0.00,765,weatherlink.com 1.10,2013-03-07 21:11:00,
2013-03-07 14:26:00,69.6,23.0,29.76,SW,236,7.0,16.0,17,0.00,,,0.00,728,weatherlink.com 1.10,2013-03-07 21:26:00,
2013-03-07 14:41:00,68.8,25.0,29.75,ENE,58,2.0,18.0,19,0.00,,,0.00,686,weatherlink.com 1.10,2013-03-07 21:41:00,
2013-03-07 14:57:00,68.7,27.0,29.75,SSW,200,14.0,28.0,21,0.00,,,0.00,561,weatherlink.com 1.10,2013-03-07 21:57:00,
2013-03-07 15:11:00,68.5,28.0,29.74,SSW,207,9.0,15.0,22,0.00,,,0.00,601,weatherlink.com 1.10,2013-03-07 22:11:00,
2013-03-07 15:26:00,68.8,28.0,29.74,SW,223,10.0,16.0,22,0.00,,,0.00,554,weatherlink.com 1.10,2013-03-07 22:26:00,
2013-03-07 15:41:00,67.6,29.0,29.75,WSW,246,6.0,17.0,24,0.00,,,0.00,555,weatherlink.com 1.10,2013-03-07 22:41:00,
2013-03-07 15:57:00,68.0,30.0,29.74,SSE,150,2.0,17.0,24,0.00,,,0.00,464,weatherlink.com 1.10,2013-03-07 22:57:00,
2013-03-07 16:12:00,66.9,28.0,29.75,SW,224,6.0,18.0,23,0.00,,,0.00,178,weatherlink.com 1.10,2013-03-07 23:12:00,
2013-03-07 16:27:00,66.6,28.0,29.75,SSW,200,9.0,10.0,23,0.00,,,0.00,204,weatherlink.com 1.10,2013-03-07 23:27:00,
2013-03-07 16:42:00,66.5,23.0,29.75,SW,215,14.0,16.0,19,0.00,,,0.00,225,weatherlink.com 1.10,2013-03-07 23:42:00,
2013-03-07 16:57:00,65.8,22.0,29.75,SSW,200,13.0,18.0,19,0.00,,,0.00,134,weatherlink.com 1.10,2013-03-07 23:57:00,
2013-03-07 17:12:00,65.2,22.0,29.75,WSW,244,7.0,14.0,19,0.00,,,0.00,144,weatherlink.com 1.10,2013-03-08 00:12:00,
2013-03-07 17:27:00,64.6,21.0,29.76,SSW,198,12.0,16.0,19,0.00,,,0.00,116,weatherlink.com 1.10,2013-03-08 00:27:00,
2013-03-07 17:42:00,64.0,22.0,29.77,SW,216,10.0,16.0,20,0.00,,,0.00,53,weatherlink.com 1.10,2013-03-08 00:42:00,
2013-03-07 17:57:00,63.2,21.0,29.77,SW,217,7.0,12.0,20,0.00,,,0.00,49,weatherlink.com 1.10,2013-03-08 00:57:00,
2013-03-07 18:12:00,62.7,22.0,29.77,SW,220,4.0,13.0,21,0.00,,,0.00,18,weatherlink.com 1.10,2013-03-08 01:12:00,
2013-03-07 18:27:00,61.8,21.0,29.78,SW,216,4.0,10.0,21,0.00,,,0.00,0,weatherlink.com 1.10,2013-03-08 01:27:00,
2013-03-07 18:42:00,60.6,21.0,29.78,SW,215,0.0,6.0,22,0.00,,,0.00,0,weatherlink.com 1.10,2013-03-08 01:42:00,
2013-03-07 18:57:00,58.9,21.0,29.79,SW,224,0.0,3.0,23,0.00,,,0.00,0,weatherlink.com 1.10,2013-03-08 01:57:00,
2013-03-07 19:12:00,57.2,22.0,29.79,SW,224,0.0,0.0,26,0.00,,,0.00,0,weatherlink.com 1.10,2013-03-08 02:12:00,
2013-03-07 19:42:00,56.9,24.0,29.80,SSE,164,2.0,4.0,28,0.00,,,0.00,0,weatherlink.com 1.10,2013-03-08 02:42:00,
2013-03-07 19:57:00,56.8,24.0,29.80,SSE,168,0.0,7.0,28,0.00,,,0.00,0,weatherlink.com 1.10,2013-03-08 02:57:00,
2013-03-07 20:13:00,56.3,24.0,29.81,SSE,160,0.0,3.0,29,0.00,,,0.00,0,weatherlink.com 1.10,2013-03-08 03:13:00,
2013-03-07 20:28:00,55.7,24.0,29.80,SSE,165,0.0,2.0,29,0.00,,,0.00,0,weatherlink.com 1.10,2013-03-08 03:28:00,
2013-03-07 20:43:00,54.9,24.0,29.81,SSE,165,0.0,1.0,30,0.00,,,0.00,0,weatherlink.com 1.10,2013-03-08 03:43:00,
2013-03-07 20:58:00,53.8,24.0,29.82,SSE,165,0.0,1.0,31,0.00,,,0.00,0,weatherlink.com 1.10,2013-03-08 03:58:00,
2013-03-07 21:13:00,53.0,24.0,29.82,SSE,165,0.0,0.0,33,0.00,,,0.00,0,weatherlink.com 1.10,2013-03-08 04:13:00,
2013-03-07 21:28:00,51.5,24.0,29.82,SSE,162,1.0,2.0,34,0.00,,,0.00,0,weatherlink.com 1.10,2013-03-08 04:28:00,
2013-03-07 21:42:00,51.7,25.0,29.82,South,170,0.0,2.0,35,0.00,,,0.00,0,weatherlink.com 1.10,2013-03-08 04:42:00,
2013-03-07 21:58:00,51.4,24.0,29.82,South,170,0.0,1.0,35,0.00,,,0.00,0,weatherlink.com 1.10,2013-03-08 04:58:00,
2013-03-07 22:12:00,50.3,24.0,29.81,South,170,0.0,2.0,36,0.00,,,0.00,0,weatherlink.com 1.10,2013-03-08 05:12:00,
2013-03-07 22:27:00,49.7,24.0,29.81,South,170,0.0,1.0,36,0.00,,,0.00,0,weatherlink.com 1.10,2013-03-08 05:27:00,
2013-03-07 22:42:00,50.1,24.0,29.81,SE,139,1.0,3.0,36,0.00,,,0.00,0,weatherlink.com 1.10,2013-03-08 05:42:00,
2013-03-07 22:57:00,51.0,23.0,29.81,SE,136,0.0,3.0,34,0.00,,,0.00,0,weatherlink.com 1.10,2013-03-08 05:57:00,
2013-03-07 23:12:00,51.6,23.0,29.80,SE,136,0.0,3.0,33,0.00,,,0.00,0,weatherlink.com 1.10,2013-03-08 06:12:00,
2013-03-07 23:27:00,51.4,23.0,29.80,SE,136,1.0,2.0,33,0.00,,,0.00,0,weatherlink.com 1.10,2013-03-08 06:27:00,
2013-03-07 23:42:00,51.0,23.0,29.81,SE,136,0.0,1.0,33,0.00,,,0.00,0,weatherlink.com 1.10,2013-03-08 06:42:00,
2013-03-07 23:59:00,50.2,23.0,29.81,SE,136,0.0,1.0,34,0.00,,,0.00,0,weatherlink.com 1.10,2013-03-08 06:59:00,